createdAt,value
2023-01-18T00:00:39.974Z,985.76
2023-01-18T00:02:39.985Z,985.75
2023-01-18T00:04:40.011Z,985.79
2023-01-18T00:06:40.025Z,985.79
2023-01-18T00:08:40.001Z,985.83
2023-01-18T00:10:39.927Z,985.79
2023-01-18T00:12:39.943Z,985.76
2023-01-18T00:14:40.004Z,985.76
2023-01-18T00:16:40.151Z,985.70
2023-01-18T00:18:39.961Z,985.65
2023-01-18T00:20:39.966Z,985.72
2023-01-18T00:22:40.039Z,985.72
2023-01-18T00:24:39.958Z,985.72
2023-01-18T00:26:40.072Z,985.72
2023-01-18T00:28:39.927Z,985.70
2023-01-18T00:30:39.919Z,985.72
2023-01-18T00:32:39.965Z,985.74
2023-01-18T00:34:40.055Z,985.74
2023-01-18T00:36:39.972Z,985.76
2023-01-18T00:38:39.952Z,985.76
2023-01-18T00:40:39.936Z,985.74
2023-01-18T00:42:39.968Z,985.74
2023-01-18T00:44:39.980Z,985.74
2023-01-18T00:46:39.962Z,985.68
2023-01-18T00:48:39.959Z,985.76
2023-01-18T00:50:39.928Z,985.77
2023-01-18T00:52:39.943Z,985.77
2023-01-18T00:54:39.972Z,985.81
2023-01-18T00:56:39.980Z,985.80
2023-01-18T00:58:39.962Z,985.80
2023-01-18T01:00:39.960Z,985.88
2023-01-18T01:03:10.005Z,985.88
2023-01-18T01:05:10.002Z,985.90
2023-01-18T01:07:09.980Z,985.90
2023-01-18T01:09:09.973Z,985.89
2023-01-18T01:11:09.959Z,985.89
2023-01-18T01:13:10.002Z,985.89
2023-01-18T01:15:10.000Z,985.92
2023-01-18T01:17:10.129Z,985.96
2023-01-18T01:19:10.001Z,986.01
2023-01-18T01:21:09.996Z,986.01
2023-01-18T01:23:10.063Z,986.06
2023-01-18T01:25:09.999Z,986.08
2023-01-18T01:27:09.969Z,986.07
2023-01-18T01:29:09.994Z,986.08
2023-01-18T01:31:10.048Z,986.08
2023-01-18T01:33:10.036Z,986.10
2023-01-18T01:35:10.016Z,986.12
2023-01-18T01:37:09.954Z,986.13
2023-01-18T01:39:10.132Z,986.16
2023-01-18T01:41:09.994Z,986.16
2023-01-18T01:43:10.004Z,986.20
2023-01-18T01:45:09.980Z,986.18
2023-01-18T01:47:09.964Z,986.18
2023-01-18T01:49:09.961Z,986.18
2023-01-18T01:51:10.291Z,986.15
2023-01-18T01:53:09.993Z,986.14
2023-01-18T01:55:10.181Z,986.12
2023-01-18T01:57:10.122Z,986.18
2023-01-18T01:59:09.967Z,986.18
2023-01-18T02:01:10.123Z,986.09
2023-01-18T02:03:10.000Z,986.10
2023-01-18T02:05:10.009Z,986.10
2023-01-18T02:07:09.975Z,986.13
2023-01-18T02:09:09.983Z,986.13
2023-01-18T02:11:09.989Z,986.28
2023-01-18T02:13:10.040Z,986.32
2023-01-18T02:15:10.011Z,986.36
2023-01-18T02:17:09.982Z,986.36
2023-01-18T02:19:10.013Z,986.37
2023-01-18T02:21:10.029Z,986.39
2023-01-18T02:23:10.019Z,986.43
2023-01-18T02:25:10.130Z,986.47
2023-01-18T02:27:10.012Z,986.47
2023-01-18T02:29:10.029Z,986.47
2023-01-18T02:31:10.073Z,986.51
2023-01-18T02:33:09.992Z,986.49
2023-01-18T02:35:10.017Z,986.51
2023-01-18T02:37:10.036Z,986.51
2023-01-18T02:39:10.835Z,986.53
2023-01-18T02:41:10.027Z,986.54
2023-01-18T02:43:10.023Z,986.58
2023-01-18T02:45:10.059Z,986.58
2023-01-18T02:49:40.077Z,986.55
2023-01-18T02:51:39.999Z,986.51
2023-01-18T02:53:39.995Z,986.54
2023-01-18T02:55:40.114Z,986.57
2023-01-18T02:57:40.018Z,986.58
2023-01-18T02:59:40.065Z,986.58
2023-01-18T03:01:40.039Z,986.58
2023-01-18T03:03:40.028Z,986.55
2023-01-18T03:05:40.042Z,986.51
2023-01-18T03:07:40.131Z,986.51
2023-01-18T03:09:40.021Z,986.51
2023-01-18T03:11:40.040Z,986.53
2023-01-18T03:13:39.991Z,986.53
2023-01-18T03:15:40.024Z,986.47
2023-01-18T03:17:40.052Z,986.47
2023-01-18T03:19:40.070Z,986.51
2023-01-18T03:21:40.031Z,986.51
2023-01-18T03:23:40.169Z,986.49
2023-01-18T03:25:40.003Z,986.51
2023-01-18T03:27:40.082Z,986.51
2023-01-18T03:29:40.007Z,986.56
2023-01-18T03:31:40.014Z,986.57
2023-01-18T03:33:40.012Z,986.57
2023-01-18T03:35:40.031Z,986.57
2023-01-18T03:37:40.122Z,986.57
2023-01-18T03:39:40.020Z,986.57
2023-01-18T03:41:40.026Z,986.59
2023-01-18T03:43:40.045Z,986.66
2023-01-18T03:45:40.038Z,986.66
2023-01-18T03:47:40.030Z,986.69
2023-01-18T03:49:40.037Z,986.69
2023-01-18T03:51:40.029Z,986.72
2023-01-18T03:53:40.042Z,986.72
2023-01-18T03:55:40.057Z,986.72
2023-01-18T03:57:40.061Z,986.74
2023-01-18T03:59:40.031Z,986.74
2023-01-18T04:01:40.116Z,986.78
2023-01-18T04:03:40.054Z,986.76
2023-01-18T04:05:40.057Z,986.76
2023-01-18T04:07:40.057Z,986.78
2023-01-18T04:09:40.048Z,986.78
2023-01-18T04:11:40.169Z,986.84
2023-01-18T04:13:40.039Z,986.85
2023-01-18T04:15:40.090Z,986.85
2023-01-18T04:17:40.066Z,986.91
2023-01-18T04:19:40.067Z,986.90
2023-01-18T04:21:40.048Z,986.96
2023-01-18T04:23:40.063Z,986.96
2023-01-18T04:25:40.115Z,987.02
2023-01-18T04:27:40.076Z,987.07
2023-01-18T04:29:40.078Z,987.07
2023-01-18T04:31:40.140Z,987.13
2023-01-18T04:34:10.110Z,987.13
2023-01-18T04:36:10.075Z,987.12
2023-01-18T04:38:10.052Z,987.12
2023-01-18T04:40:10.077Z,987.19
2023-01-18T04:42:10.110Z,987.18
2023-01-18T04:44:10.129Z,987.18
2023-01-18T04:46:10.076Z,987.18
2023-01-18T04:48:10.081Z,987.32
2023-01-18T04:50:10.130Z,987.39
2023-01-18T04:52:10.052Z,987.39
2023-01-18T04:54:10.155Z,987.39
2023-01-18T04:56:10.182Z,987.54
2023-01-18T04:58:10.117Z,987.56
2023-01-18T05:00:10.078Z,987.61
2023-01-18T05:02:10.233Z,987.61
2023-01-18T05:04:10.224Z,987.65
2023-01-18T05:06:10.100Z,987.67
2023-01-18T05:08:10.175Z,987.67
2023-01-18T05:10:10.314Z,987.67
2023-01-18T05:12:10.190Z,987.67
2023-01-18T05:14:10.175Z,987.93
2023-01-18T05:16:10.101Z,987.93
2023-01-18T05:18:10.138Z,987.92
2023-01-18T05:20:10.064Z,987.92
2023-01-18T05:22:10.217Z,987.95
2023-01-18T05:24:10.634Z,987.96
2023-01-18T05:26:10.086Z,987.99
2023-01-18T05:28:10.165Z,988.04
2023-01-18T05:30:10.146Z,988.04
2023-01-18T05:32:10.193Z,988.04
2023-01-18T05:34:10.185Z,988.09
2023-01-18T05:36:10.223Z,988.14
2023-01-18T05:40:10.180Z,988.16
2023-01-18T05:42:10.133Z,988.15
2023-01-18T05:44:10.226Z,988.13
2023-01-18T05:46:10.268Z,988.17
2023-01-18T05:50:18.465Z,988.20
2023-01-18T05:52:18.547Z,988.20
2023-01-18T05:54:18.528Z,988.21
2023-01-18T05:56:18.502Z,988.28
2023-01-18T05:58:18.464Z,988.28
2023-01-18T06:00:18.465Z,988.32
2023-01-18T06:02:18.431Z,988.37
2023-01-18T06:04:18.526Z,988.45
2023-01-18T06:06:18.508Z,988.45
2023-01-18T06:08:18.502Z,988.45
2023-01-18T06:10:18.445Z,988.57
2023-01-18T06:12:18.536Z,988.59
2023-01-18T06:14:18.446Z,988.59
2023-01-18T06:16:19.460Z,988.64
2023-01-18T06:18:18.478Z,988.64
2023-01-18T06:20:18.507Z,988.72
2023-01-18T06:22:18.525Z,988.76
2023-01-18T06:24:18.433Z,988.81
2023-01-18T06:26:18.456Z,988.81
2023-01-18T06:28:18.466Z,988.81
2023-01-18T06:30:18.457Z,988.90
2023-01-18T06:32:18.582Z,988.90
2023-01-18T06:34:18.437Z,988.97
2023-01-18T06:36:18.547Z,988.97
2023-01-18T06:38:18.436Z,988.97
2023-01-18T06:40:18.443Z,989.07
2023-01-18T06:42:18.428Z,989.14
2023-01-18T06:44:18.436Z,989.14
2023-01-18T06:46:48.408Z,989.23
2023-01-18T06:48:48.402Z,989.23
2023-01-18T06:50:48.471Z,989.23
2023-01-18T06:52:48.429Z,989.28
2023-01-18T06:54:48.434Z,989.31
2023-01-18T06:56:48.465Z,989.34
2023-01-18T06:58:48.416Z,989.34
2023-01-18T07:00:48.597Z,989.40
2023-01-18T07:02:48.432Z,989.46
2023-01-18T07:04:48.476Z,989.48
2023-01-18T07:06:48.467Z,989.55
2023-01-18T07:08:48.552Z,989.55
2023-01-18T07:10:48.437Z,989.58
2023-01-18T07:12:48.498Z,989.58
2023-01-18T07:14:48.408Z,989.68
2023-01-18T07:16:48.605Z,989.67
2023-01-18T07:18:48.458Z,989.67
2023-01-18T07:20:48.507Z,989.71
2023-01-18T07:22:48.428Z,989.74
2023-01-18T07:24:48.426Z,989.78
2023-01-18T07:26:48.459Z,989.78
2023-01-18T07:28:48.427Z,989.84
2023-01-18T07:30:48.451Z,989.87
2023-01-18T07:32:48.475Z,989.94
2023-01-18T07:34:48.502Z,989.95
2023-01-18T07:36:48.435Z,989.95
2023-01-18T07:38:48.428Z,990.03
2023-01-18T07:40:48.450Z,990.07
2023-01-18T07:42:48.430Z,990.13
2023-01-18T07:44:48.484Z,990.18
2023-01-18T07:46:48.499Z,990.18
2023-01-18T07:48:48.432Z,990.23
2023-01-18T07:50:48.547Z,990.23
2023-01-18T07:52:48.549Z,990.23
2023-01-18T07:54:48.436Z,990.23
2023-01-18T07:56:48.481Z,990.39
2023-01-18T07:58:48.514Z,990.44
2023-01-18T08:00:48.503Z,990.53
2023-01-18T08:02:48.510Z,990.57
2023-01-18T08:04:48.540Z,990.57
2023-01-18T08:06:48.471Z,990.66
2023-01-18T08:08:48.449Z,990.70
2023-01-18T08:10:48.498Z,990.80
2023-01-18T08:12:48.479Z,990.80
2023-01-18T08:14:48.726Z,990.80
2023-01-18T08:16:48.466Z,990.99
2023-01-18T08:18:48.454Z,991.03
2023-01-18T08:20:48.455Z,991.13
2023-01-18T08:22:48.463Z,991.13
2023-01-18T08:24:48.458Z,991.13
2023-01-18T08:26:48.501Z,991.18
2023-01-18T08:28:48.525Z,991.22
2023-01-18T08:31:18.547Z,991.26
2023-01-18T08:33:18.499Z,991.26
2023-01-18T08:35:18.510Z,991.26
2023-01-18T08:37:18.471Z,991.36
2023-01-18T08:39:18.455Z,991.41
2023-01-18T08:41:18.550Z,991.47
2023-01-18T08:43:18.485Z,991.47
2023-01-18T08:45:18.502Z,991.57
2023-01-18T08:47:18.456Z,991.57
2023-01-18T08:49:18.487Z,991.76
2023-01-18T08:51:18.460Z,991.76
2023-01-18T08:53:18.476Z,991.81
2023-01-18T08:55:18.492Z,991.85
2023-01-18T08:57:18.452Z,991.91
2023-01-18T08:59:18.587Z,991.92
2023-01-18T09:01:18.562Z,991.92
2023-01-18T09:03:18.596Z,991.89
2023-01-18T09:05:18.464Z,991.96
2023-01-18T09:07:18.585Z,991.96
2023-01-18T09:09:18.486Z,991.99
2023-01-18T09:11:18.544Z,991.99
2023-01-18T09:13:18.551Z,992.03
2023-01-18T09:15:18.567Z,992.03
2023-01-18T09:17:18.551Z,992.13
2023-01-18T09:19:18.508Z,992.15
2023-01-18T09:21:18.584Z,992.15
2023-01-18T09:23:18.511Z,992.23
2023-01-18T09:25:18.558Z,992.31
2023-01-18T09:27:18.487Z,992.34
2023-01-18T09:29:18.579Z,992.34
2023-01-18T09:31:18.606Z,992.43
2023-01-18T09:33:18.468Z,992.51
2023-01-18T09:35:18.626Z,992.61
2023-01-18T09:37:18.477Z,992.66
2023-01-18T09:39:18.510Z,992.66
2023-01-18T09:41:18.544Z,992.71
2023-01-18T09:43:18.499Z,992.70
2023-01-18T09:45:19.558Z,992.73
2023-01-18T09:47:18.557Z,992.73
2023-01-18T09:49:18.496Z,992.73
2023-01-18T09:51:18.556Z,992.84
2023-01-18T09:53:18.640Z,992.89
2023-01-18T09:55:18.549Z,992.89
2023-01-18T09:57:18.506Z,992.89
2023-01-18T09:59:18.503Z,992.99
2023-01-18T10:01:18.737Z,993.02
2023-01-18T10:03:18.544Z,993.02
2023-01-18T10:05:18.494Z,993.02
2023-01-18T10:07:18.644Z,993.02
2023-01-18T10:09:18.521Z,993.13
2023-01-18T10:11:18.566Z,993.10
2023-01-18T10:13:18.531Z,993.10
2023-01-18T10:15:21.029Z,993.09
2023-01-18T10:17:48.516Z,993.09
2023-01-18T10:19:48.512Z,993.23
2023-01-18T10:21:48.534Z,993.23
2023-01-18T10:23:48.512Z,993.26
2023-01-18T10:25:48.535Z,993.36
2023-01-18T10:27:48.638Z,993.34
2023-01-18T10:29:48.587Z,993.34
2023-01-18T10:31:48.561Z,993.40
2023-01-18T10:33:48.545Z,993.40
2023-01-18T10:35:48.513Z,993.40
2023-01-18T10:37:48.518Z,993.48
2023-01-18T10:39:48.590Z,993.48
2023-01-18T10:41:48.540Z,993.53
2023-01-18T10:43:48.603Z,993.56
2023-01-18T10:45:48.561Z,993.65
2023-01-18T10:47:48.542Z,993.66
2023-01-18T10:49:48.554Z,993.66
2023-01-18T10:51:48.568Z,993.77
2023-01-18T10:53:48.557Z,993.77
2023-01-18T10:55:48.520Z,993.90
2023-01-18T10:57:48.535Z,993.90
2023-01-18T10:59:48.529Z,993.96
2023-01-18T11:01:48.671Z,994.02
2023-01-18T11:03:48.521Z,994.02
2023-01-18T11:05:48.518Z,994.02
2023-01-18T11:07:48.543Z,994.02
2023-01-18T11:09:48.583Z,994.02
2023-01-18T11:11:48.559Z,994.06
2023-01-18T11:13:48.633Z,994.06
2023-01-18T11:15:48.566Z,994.06
2023-01-18T11:17:48.558Z,994.06
2023-01-18T11:19:48.559Z,994.12
2023-01-18T11:21:50.707Z,994.17
2023-01-18T11:23:48.590Z,994.29
2023-01-18T11:25:48.539Z,994.29
2023-01-18T11:27:48.588Z,994.29
2023-01-18T11:29:48.536Z,994.38
2023-01-18T11:31:48.594Z,994.48
2023-01-18T11:33:48.558Z,994.54
2023-01-18T11:35:48.551Z,994.54
2023-01-18T11:37:48.545Z,994.54
2023-01-18T11:39:48.572Z,994.57
2023-01-18T11:41:48.574Z,994.61
2023-01-18T11:43:48.557Z,994.60
2023-01-18T11:45:48.580Z,994.60
2023-01-18T11:47:48.568Z,994.66
2023-01-18T11:49:48.564Z,994.65
2023-01-18T11:51:48.585Z,994.65
2023-01-18T11:53:48.664Z,994.65
2023-01-18T11:55:48.545Z,994.76
2023-01-18T11:57:48.597Z,994.76
2023-01-18T11:59:48.577Z,994.75
2023-01-18T12:01:48.657Z,994.75
2023-01-18T12:04:18.552Z,994.75
2023-01-18T12:06:18.573Z,994.75
2023-01-18T12:08:18.581Z,994.79
2023-01-18T12:10:18.667Z,994.86
2023-01-18T12:12:19.836Z,994.86
2023-01-18T12:14:18.556Z,994.86
2023-01-18T12:16:18.663Z,994.93
2023-01-18T12:18:18.996Z,994.90
2023-01-18T12:20:18.613Z,994.97
2023-01-18T12:22:18.619Z,994.97
2023-01-18T12:24:18.568Z,994.97
2023-01-18T12:26:18.659Z,995.10
2023-01-18T12:28:18.626Z,995.22
2023-01-18T12:30:18.726Z,995.22
2023-01-18T12:32:18.748Z,995.22
2023-01-18T12:34:18.585Z,995.31
2023-01-18T12:36:18.625Z,995.34
2023-01-18T12:38:18.651Z,995.34
2023-01-18T12:40:18.592Z,995.47
2023-01-18T12:42:18.611Z,995.47
2023-01-18T12:44:18.656Z,995.50
2023-01-18T12:46:18.756Z,995.54
2023-01-18T12:48:18.680Z,995.57
2023-01-18T12:50:18.683Z,995.61
2023-01-18T12:52:19.460Z,995.61
2023-01-18T12:54:20.607Z,995.65
2023-01-18T12:56:18.639Z,995.66
2023-01-18T12:58:18.636Z,995.64
2023-01-18T13:02:09.561Z,995.67
2023-01-18T13:04:09.514Z,995.68
2023-01-18T13:06:09.529Z,995.74
2023-01-18T13:08:09.490Z,995.73
2023-01-18T13:10:09.505Z,995.73
2023-01-18T13:12:09.509Z,995.74
2023-01-18T13:14:09.569Z,995.74
2023-01-18T13:16:39.534Z,995.79
2023-01-18T13:18:39.534Z,995.79
2023-01-18T13:20:39.508Z,995.87
2023-01-18T13:22:39.517Z,995.92
2023-01-18T13:24:39.505Z,995.92
2023-01-18T13:26:39.523Z,995.94
2023-01-18T13:28:39.554Z,996.00
2023-01-18T13:30:39.616Z,996.08
2023-01-18T13:32:39.508Z,996.08
2023-01-18T13:34:48.012Z,996.13
2023-01-18T13:36:39.551Z,996.13
2023-01-18T13:38:41.692Z,996.25
2023-01-18T13:40:39.573Z,996.24
2023-01-18T13:42:39.522Z,996.24
2023-01-18T13:44:39.541Z,996.35
2023-01-18T13:46:39.740Z,996.35
2023-01-18T13:48:39.525Z,996.46
2023-01-18T13:50:39.592Z,996.53
2023-01-18T13:52:39.543Z,996.53
2023-01-18T13:54:39.559Z,996.58
2023-01-18T13:56:40.569Z,996.67
2023-01-18T13:58:39.511Z,996.67
2023-01-18T14:00:39.549Z,996.67
2023-01-18T14:02:39.604Z,996.87
2023-01-18T14:04:39.533Z,996.86
2023-01-18T14:06:39.524Z,996.92
2023-01-18T14:08:39.542Z,996.95
2023-01-18T14:10:39.628Z,996.95
2023-01-18T14:12:39.544Z,997.03
2023-01-18T14:14:39.569Z,997.07
2023-01-18T14:16:39.603Z,997.17
2023-01-18T14:18:39.562Z,997.22
2023-01-18T14:20:39.512Z,997.22
2023-01-18T14:22:39.555Z,997.26
2023-01-18T14:24:39.559Z,997.31
2023-01-18T14:26:39.530Z,997.38
2023-01-18T14:28:39.650Z,997.38
2023-01-18T14:30:39.552Z,997.47
2023-01-18T14:32:39.538Z,997.52
2023-01-18T14:34:39.564Z,997.57
2023-01-18T14:36:39.585Z,997.59
2023-01-18T14:38:39.535Z,997.59
2023-01-18T14:40:39.616Z,997.59
2023-01-18T14:42:39.555Z,997.68
2023-01-18T14:44:56.882Z,997.72
2023-01-18T14:46:39.659Z,997.78
2023-01-18T14:48:39.527Z,997.78
2023-01-18T14:50:39.654Z,997.82
2023-01-18T14:52:39.681Z,997.82
2023-01-18T14:54:39.540Z,997.82
2023-01-18T14:56:39.535Z,997.82
2023-01-18T14:58:39.610Z,997.82
2023-01-18T15:00:39.569Z,997.82
2023-01-18T15:03:09.604Z,998.18
2023-01-18T15:05:09.623Z,998.18
2023-01-18T15:07:09.573Z,998.18
2023-01-18T15:09:09.682Z,998.26
2023-01-18T15:11:09.600Z,998.28
2023-01-18T15:13:09.543Z,998.35
2023-01-18T15:15:09.559Z,998.42
2023-01-18T15:17:09.589Z,998.42
2023-01-18T15:19:09.657Z,998.42
2023-01-18T15:21:09.562Z,998.42
2023-01-18T15:23:09.578Z,998.42
2023-01-18T15:25:09.587Z,998.42
2023-01-18T15:27:09.592Z,998.42
2023-01-18T15:29:09.623Z,998.59
2023-01-18T15:31:09.666Z,998.60
2023-01-18T15:33:09.730Z,998.60
2023-01-18T15:35:12.623Z,998.60
2023-01-18T15:37:09.717Z,998.60
2023-01-18T15:39:09.579Z,998.61
2023-01-18T15:41:10.998Z,998.63
2023-01-18T15:43:09.603Z,998.72
2023-01-18T15:45:09.576Z,998.72
2023-01-18T15:47:10.452Z,998.81
2023-01-18T15:49:09.557Z,998.79
2023-01-18T15:51:09.678Z,998.81
2023-01-18T15:53:09.685Z,998.84
2023-01-18T15:55:09.697Z,998.84
2023-01-18T15:57:09.636Z,998.88
2023-01-18T15:59:09.664Z,998.95
2023-01-18T16:01:09.785Z,998.95
2023-01-18T16:03:09.696Z,998.95
2023-01-18T16:05:09.713Z,999.01
2023-01-18T16:07:09.718Z,999.02
2023-01-18T16:09:11.853Z,999.07
2023-01-18T16:11:09.796Z,999.08
2023-01-18T16:13:09.656Z,999.08
2023-01-18T16:15:09.849Z,999.13
2023-01-18T16:17:09.647Z,999.13
2023-01-18T16:19:09.697Z,999.20
2023-01-18T16:21:09.696Z,999.27
2023-01-18T16:23:09.748Z,999.27
2023-01-18T16:25:09.707Z,999.33
2023-01-18T16:27:11.068Z,999.34
2023-01-18T16:29:09.782Z,999.34
2023-01-18T16:31:09.715Z,999.34
2023-01-18T16:33:09.764Z,999.39
2023-01-18T16:35:10.906Z,999.41
2023-01-18T16:37:09.820Z,999.50
2023-01-18T16:39:09.889Z,999.55
2023-01-18T16:41:09.644Z,999.55
2023-01-18T16:43:09.641Z,999.55
2023-01-18T16:45:09.663Z,999.62
2023-01-18T16:47:09.668Z,999.62
2023-01-18T16:49:09.695Z,999.71
2023-01-18T16:51:39.740Z,999.71
2023-01-18T16:53:39.723Z,999.71
2023-01-18T16:55:39.617Z,999.71
2023-01-18T16:57:39.666Z,999.84
2023-01-18T16:59:39.655Z,999.93
2023-01-18T17:01:39.671Z,999.98
2023-01-18T17:03:39.680Z,999.98
2023-01-18T17:05:39.750Z,1000.04
2023-01-18T17:07:39.775Z,1000.06
2023-01-18T17:09:47.924Z,1000.10
2023-01-18T17:11:39.656Z,1000.10
2023-01-18T17:13:39.707Z,1000.10
2023-01-18T17:15:40.736Z,1000.11
2023-01-18T17:17:39.710Z,1000.18
2023-01-18T17:19:40.955Z,1000.23
2023-01-18T17:21:39.760Z,1000.23
2023-01-18T17:23:39.903Z,1000.23
2023-01-18T17:25:39.797Z,1000.33
2023-01-18T17:27:39.695Z,1000.33
2023-01-18T17:29:39.747Z,1000.43
2023-01-18T17:31:48.039Z,1000.43
2023-01-18T17:33:39.740Z,1000.46
2023-01-18T17:35:39.729Z,1000.48
2023-01-18T17:37:39.830Z,1000.49
2023-01-18T17:39:49.896Z,1000.52
2023-01-18T17:41:39.720Z,1000.52
2023-01-18T17:43:39.728Z,1000.56
2023-01-18T17:45:40.755Z,1000.58
2023-01-18T17:47:39.684Z,1000.64
2023-01-18T17:49:39.734Z,1000.64
2023-01-18T17:51:39.755Z,1000.64
2023-01-18T17:53:39.776Z,1000.64
2023-01-18T17:55:39.698Z,1000.78
2023-01-18T17:57:39.665Z,1000.78
2023-01-18T17:59:39.861Z,1000.78
2023-01-18T18:01:39.899Z,1000.78
2023-01-18T18:03:39.741Z,1000.78
2023-01-18T18:05:39.841Z,1000.78
2023-01-18T18:07:39.778Z,1000.78
2023-01-18T18:09:39.806Z,1000.78
2023-01-18T18:11:39.757Z,1000.78
2023-01-18T18:13:39.703Z,1000.78
2023-01-18T18:15:39.779Z,1001.22
2023-01-18T18:17:39.772Z,1001.22
2023-01-18T18:19:39.746Z,1001.22
2023-01-18T18:21:39.727Z,1001.22
2023-01-18T18:23:39.722Z,1001.22
2023-01-18T18:25:39.675Z,1001.22
2023-01-18T18:27:45.693Z,1001.22
2023-01-18T18:29:39.724Z,1001.22
2023-01-18T18:31:39.726Z,1001.55
2023-01-18T18:33:39.739Z,1001.55
2023-01-18T18:35:39.790Z,1001.55
2023-01-18T18:38:09.819Z,1001.55
2023-01-18T18:40:09.708Z,1001.62
2023-01-18T18:42:09.760Z,1001.63
2023-01-18T18:44:09.728Z,1001.63
2023-01-18T18:46:09.813Z,1001.76
2023-01-18T18:48:09.826Z,1001.76
2023-01-18T18:50:09.746Z,1001.77
2023-01-18T18:52:09.697Z,1001.84
2023-01-18T18:54:09.670Z,1001.84
2023-01-18T18:56:10.056Z,1001.88
2023-01-18T18:58:09.720Z,1001.88
2023-01-18T19:00:09.759Z,1001.91
2023-01-18T19:02:09.779Z,1001.96
2023-01-18T19:04:09.860Z,1001.96
2023-01-18T19:06:09.823Z,1001.96
2023-01-18T19:08:09.798Z,1001.96
2023-01-18T19:10:09.763Z,1002.08
2023-01-18T19:12:09.725Z,1002.08
2023-01-18T19:14:09.779Z,1002.22
2023-01-18T19:16:09.787Z,1002.22
2023-01-18T19:18:09.757Z,1002.22
2023-01-18T19:20:09.774Z,1002.22
2023-01-18T19:22:09.783Z,1002.22
2023-01-18T19:24:09.803Z,1002.22
2023-01-18T19:26:09.821Z,1002.22
2023-01-18T19:28:09.743Z,1002.22
2023-01-18T19:30:09.851Z,1002.22
2023-01-18T19:32:09.781Z,1002.22
2023-01-18T19:34:09.904Z,1002.22
2023-01-18T19:36:09.837Z,1002.22
2023-01-18T19:38:09.804Z,1002.22
2023-01-18T19:40:10.033Z,1002.61
2023-01-18T19:42:09.799Z,1002.61
2023-01-18T19:44:09.782Z,1002.61
2023-01-18T19:46:09.746Z,1002.63
2023-01-18T19:48:09.876Z,1002.68
2023-01-18T19:50:09.882Z,1002.74
2023-01-18T19:52:09.901Z,1002.73
2023-01-18T19:54:09.876Z,1002.73
2023-01-18T19:56:09.872Z,1002.73
2023-01-18T19:58:09.845Z,1002.74
2023-01-18T20:00:09.803Z,1002.78
2023-01-18T20:02:09.907Z,1002.78
2023-01-18T20:06:24.675Z,1002.76
2023-01-18T20:08:24.670Z,1002.81
2023-01-18T20:10:24.667Z,1002.87
2023-01-18T20:12:24.707Z,1002.87
2023-01-18T20:14:33.522Z,1002.90
2023-01-18T20:16:24.786Z,1002.86
2023-01-18T20:18:24.630Z,1002.93
2023-01-18T20:20:32.497Z,1002.96
2023-01-18T20:22:24.695Z,1002.96
2023-01-18T20:24:24.671Z,1003.03
2023-01-18T20:26:35.026Z,1003.03
2023-01-18T20:28:24.708Z,1003.03
2023-01-18T20:30:24.733Z,1003.03
2023-01-18T20:32:24.673Z,1003.04
2023-01-18T20:34:25.020Z,1003.08
2023-01-18T20:36:24.688Z,1003.08
2023-01-18T20:38:24.693Z,1003.07
2023-01-18T20:40:24.720Z,1003.07
2023-01-18T20:42:24.721Z,1003.12
2023-01-18T20:44:24.742Z,1003.12
2023-01-18T20:46:24.758Z,1003.12
2023-01-18T20:48:24.680Z,1003.25
2023-01-18T20:50:24.645Z,1003.25
2023-01-18T20:52:24.655Z,1003.32
2023-01-18T20:54:24.722Z,1003.35
2023-01-18T20:56:29.085Z,1003.39
2023-01-18T20:58:24.716Z,1003.46
2023-01-18T21:00:24.754Z,1003.46
2023-01-18T21:02:24.658Z,1003.54
2023-01-18T21:04:24.658Z,1003.61
2023-01-18T21:06:24.701Z,1003.65
2023-01-18T21:08:24.699Z,1003.65
2023-01-18T21:10:24.696Z,1003.67
2023-01-18T21:12:24.713Z,1003.69
2023-01-18T21:14:24.774Z,1003.71
2023-01-18T21:16:54.855Z,1003.72
2023-01-18T21:18:54.776Z,1003.72
2023-01-18T21:20:54.920Z,1003.80
2023-01-18T21:22:54.724Z,1003.80
2023-01-18T21:24:55.885Z,1003.77
2023-01-18T21:26:54.753Z,1003.77
2023-01-18T21:28:54.815Z,1003.77
2023-01-18T21:30:54.689Z,1003.77
2023-01-18T21:32:54.689Z,1003.83
2023-01-18T21:34:54.682Z,1003.83
2023-01-18T21:36:54.681Z,1003.87
2023-01-18T21:38:54.782Z,1003.87
2023-01-18T21:40:54.763Z,1003.87
2023-01-18T21:42:54.739Z,1003.84
2023-01-18T21:44:54.779Z,1003.89
2023-01-18T21:46:54.662Z,1003.89
2023-01-18T21:48:54.696Z,1003.86
2023-01-18T21:50:54.684Z,1003.86
2023-01-18T21:52:54.820Z,1003.93
2023-01-18T21:54:54.744Z,1003.93
2023-01-18T21:56:54.758Z,1004.05
2023-01-18T21:58:55.081Z,1004.07
2023-01-18T22:00:54.838Z,1004.07
2023-01-18T22:02:54.796Z,1004.11
2023-01-18T22:04:54.632Z,1004.11
2023-01-18T22:06:54.756Z,1004.11
2023-01-18T22:08:54.753Z,1004.11
2023-01-18T22:10:54.858Z,1004.11
2023-01-18T22:12:54.773Z,1004.11
2023-01-18T22:14:54.780Z,1004.30
2023-01-18T22:16:54.739Z,1004.30
2023-01-18T22:18:54.707Z,1004.30
2023-01-18T22:20:54.752Z,1004.30
2023-01-18T22:22:54.753Z,1004.38
2023-01-18T22:24:54.648Z,1004.38
2023-01-18T22:26:54.670Z,1004.55
2023-01-18T22:28:54.779Z,1004.55
2023-01-18T22:30:54.720Z,1004.55
2023-01-18T22:32:54.694Z,1004.60
2023-01-18T22:34:54.734Z,1004.67
2023-01-18T22:36:54.720Z,1004.67
2023-01-18T22:38:54.711Z,1004.72
2023-01-18T22:40:54.661Z,1004.73
2023-01-18T22:42:54.663Z,1004.74
2023-01-18T22:44:54.713Z,1004.75
2023-01-18T22:46:54.728Z,1004.75
2023-01-18T22:48:54.650Z,1004.75
2023-01-18T22:50:54.685Z,1004.81
2023-01-18T22:52:54.906Z,1004.83
2023-01-18T22:54:54.682Z,1004.87
2023-01-18T22:56:55.793Z,1004.87
2023-01-18T22:58:54.745Z,1004.86
2023-01-18T23:00:54.704Z,1004.87
2023-01-18T23:03:24.696Z,1004.87
2023-01-18T23:05:24.672Z,1004.87
2023-01-18T23:07:24.759Z,1004.89
2023-01-18T23:09:24.685Z,1004.92
2023-01-18T23:11:24.699Z,1004.94
2023-01-18T23:13:24.693Z,1004.94
2023-01-18T23:15:24.690Z,1004.94
2023-01-18T23:17:24.722Z,1004.94
2023-01-18T23:19:24.667Z,1004.93
2023-01-18T23:21:24.723Z,1004.93
2023-01-18T23:23:24.705Z,1004.95
2023-01-18T23:25:24.795Z,1004.95
2023-01-18T23:27:24.703Z,1004.95
2023-01-18T23:29:24.764Z,1004.95
2023-01-18T23:31:24.739Z,1004.99
2023-01-18T23:33:24.663Z,1004.99
2023-01-18T23:35:24.712Z,1005.03
2023-01-18T23:37:24.796Z,1005.00
2023-01-18T23:39:24.709Z,1005.07
2023-01-18T23:41:24.697Z,1005.08
2023-01-18T23:43:24.735Z,1005.08
2023-01-18T23:45:24.753Z,1005.06
2023-01-18T23:47:24.763Z,1005.06
2023-01-18T23:49:24.754Z,1005.06
2023-01-18T23:51:27.040Z,1005.06
2023-01-18T23:53:25.193Z,1005.06
2023-01-18T23:55:24.793Z,1005.04
2023-01-18T23:57:24.847Z,1005.08
2023-01-18T23:59:24.800Z,1005.09
